Time;durP1;ratioP1;P1;durP2;ratioP2;P2;SDS_P1;SDS_P2;PMS_P1;PMS_P2;Temp;Humidity;BMP_temperature;BMP_pressure;BME280_temperature;BME280_humidity;BME280_pressure;Samples;Min_cycle;Max_cycle;Signal;HPM_P1;HPM_P2
2022/10/06 00:00:27;;;;;;;7.32;4.78;;;;;;;;;;4974852;28;20022;-70
2022/10/06 00:02:53;;;;;;;9.68;5.07;;;;;;;;;;4975082;28;20034;-70
2022/10/06 00:05:19;;;;;;;7.35;4.60;;;;;;;;;;4975039;28;20027;-69
2022/10/06 00:07:44;;;;;;;7.53;5.28;;;;;;;;;;4974774;28;20031;-68
2022/10/06 00:10:10;;;;;;;7.38;4.80;;;;;;;;;;4974957;28;20058;-69
2022/10/06 00:12:44;;;;;;;6.30;4.53;;;;;;;;;;4974842;28;20427;-71
2022/10/06 00:15:11;;;;;;;7.63;4.47;;;;;;;;;;4974642;28;20042;-70
2022/10/06 00:17:37;;;;;;;7.70;4.60;;;;;;;;;;4974797;28;20031;-72
2022/10/06 00:20:03;;;;;;;8.10;4.38;;;;;;;;;;4978432;28;20061;-72
2022/10/06 00:22:37;;;;;;;5.93;4.55;;;;;;;;;;4994134;28;20034;-73
2022/10/06 00:25:03;;;;;;;6.07;5.03;;;;;;;;;;4994161;28;20026;-72
2022/10/06 00:27:37;;;;;;;7.00;4.63;;;;;;;;;;4993979;28;20061;-71
2022/10/06 00:30:11;;;;;;;7.35;4.18;;;;;;;;;;4993919;28;20122;-72
2022/10/06 00:32:37;;;;;;;7.22;4.50;;;;;;;;;;4994069;28;20031;-73
2022/10/06 00:35:04;;;;;;;8.75;4.57;;;;;;;;;;4993995;28;20026;-71
2022/10/06 00:37:34;;;;;;;8.43;4.20;;;;;;;;;;4994099;28;20546;-72
2022/10/06 00:40:00;;;;;;;7.82;4.50;;;;;;;;;;4993952;28;20049;-72
2022/10/06 00:42:27;;;;;;;7.68;4.40;;;;;;;;;;4993850;28;20061;-72
2022/10/06 00:44:53;;;;;;;7.70;4.10;;;;;;;;;;4993430;28;20034;-71
2022/10/06 00:47:21;;;;;;;10.75;3.95;;;;;;;;;;4993584;28;20035;-71
2022/10/06 00:49:48;;;;;;;5.35;3.63;;;;;;;;;;4993681;28;20046;-71
2022/10/06 00:52:17;;;;;;;5.47;3.90;;;;;;;;;;4982619;28;20059;-71
2022/10/06 00:54:43;;;;;;;10.50;3.72;;;;;;;;;;4962330;28;20436;-71
2022/10/06 00:57:09;;;;;;;7.13;3.38;;;;;;;;;;4972088;28;20059;-72
2022/10/06 00:59:37;;;;;;;4.88;3.35;;;;;;;;;;4960375;28;20032;-73
2022/10/06 01:02:17;;;;;;;5.05;3.58;;;;;;;;;;4954006;28;20035;-71
2022/10/06 01:04:47;;;;;;;6.55;3.30;;;;;;;;;;4953568;28;20086;-72
2022/10/06 01:07:13;;;;;;;4.50;3.60;;;;;;;;;;4953801;28;20501;-72
2022/10/06 01:09:39;;;;;;;4.97;3.00;;;;;;;;;;4960814;28;20020;-72
2022/10/06 01:12:06;;;;;;;7.55;2.97;;;;;;;;;;4962062;28;20495;-71
2022/10/06 01:14:35;;;;;;;5.07;3.08;;;;;;;;;;4964326;28;20474;-71
2022/10/06 01:17:07;;;;;;;6.10;2.80;;;;;;;;;;4963393;28;20109;-71
2022/10/06 01:19:43;;;;;;;9.52;3.00;;;;;;;;;;4964035;28;20519;-71
2022/10/06 01:22:12;;;;;;;3.83;2.72;;;;;;;;;;4964615;28;20110;-70
2022/10/06 01:24:37;;;;;;;4.35;2.72;;;;;;;;;;4962956;28;20030;-67
2022/10/06 01:27:06;;;;;;;3.75;2.80;;;;;;;;;;4961118;28;20024;-68
2022/10/06 01:29:32;;;;;;;4.95;2.63;;;;;;;;;;4962357;28;20450;-71
2022/10/06 01:31:59;;;;;;;5.57;3.08;;;;;;;;;;4962542;28;20062;-72
2022/10/06 01:34:24;;;;;;;6.38;2.67;;;;;;;;;;4963732;28;20047;-69
2022/10/06 01:36:50;;;;;;;4.57;2.83;;;;;;;;;;4961777;28;20024;-70
2022/10/06 01:39:15;;;;;;;5.15;2.88;;;;;;;;;;4963162;28;20027;-71
2022/10/06 01:41:41;;;;;;;6.43;2.90;;;;;;;;;;4963090;28;20046;-69
2022/10/06 01:44:06;;;;;;;7.28;3.30;;;;;;;;;;4961602;28;20023;-69
2022/10/06 01:46:32;;;;;;;4.15;2.80;;;;;;;;;;4963480;28;20033;-70
2022/10/06 01:48:57;;;;;;;4.97;3.03;;;;;;;;;;4962644;28;20023;-69
2022/10/06 01:51:23;;;;;;;4.22;3.00;;;;;;;;;;4962225;28;20043;-69
2022/10/06 01:53:48;;;;;;;4.75;2.97;;;;;;;;;;4963662;28;20023;-72
2022/10/06 01:56:14;;;;;;;3.97;3.17;;;;;;;;;;4961892;28;20031;-70
2022/10/06 01:58:39;;;;;;;4.20;2.90;;;;;;;;;;4964342;28;20027;-72
2022/10/06 02:01:06;;;;;;;6.30;2.78;;;;;;;;;;4972785;28;20107;-69
2022/10/06 02:03:36;;;;;;;4.75;3.08;;;;;;;;;;4972793;28;20464;-71
2022/10/06 02:06:03;;;;;;;6.97;2.97;;;;;;;;;;4972629;28;20093;-70
2022/10/06 02:08:28;;;;;;;5.80;3.13;;;;;;;;;;4972643;28;20031;-72
2022/10/06 02:10:54;;;;;;;5.65;2.92;;;;;;;;;;4972508;28;20093;-70
2022/10/06 02:13:24;;;;;;;4.65;2.92;;;;;;;;;;4972585;28;20031;-72
2022/10/06 02:15:50;;;;;;;7.68;3.45;;;;;;;;;;4972666;28;20066;-71
2022/10/06 02:18:16;;;;;;;5.60;3.50;;;;;;;;;;4975937;28;20126;-70
2022/10/06 02:20:41;;;;;;;4.32;3.00;;;;;;;;;;4975975;28;20125;-69
2022/10/06 02:23:07;;;;;;;7.07;3.28;;;;;;;;;;4976164;28;20031;-72
2022/10/06 02:25:33;;;;;;;6.30;3.00;;;;;;;;;;4975917;28;20518;-70
2022/10/06 02:27:59;;;;;;;5.53;3.20;;;;;;;;;;4975916;28;20059;-69
2022/10/06 02:30:24;;;;;;;6.22;3.35;;;;;;;;;;4976113;28;20084;-71
2022/10/06 02:32:50;;;;;;;6.32;3.53;;;;;;;;;;4975985;28;20027;-69
2022/10/06 02:35:15;;;;;;;4.68;3.40;;;;;;;;;;4975838;28;20031;-72
2022/10/06 02:37:41;;;;;;;5.18;3.50;;;;;;;;;;4975859;28;20027;-69
2022/10/06 02:40:07;;;;;;;4.80;3.50;;;;;;;;;;4975599;28;20073;-69
2022/10/06 02:42:37;;;;;;;5.88;3.08;;;;;;;;;;4975715;28;20364;-71
2022/10/06 02:45:06;;;;;;;5.90;3.30;;;;;;;;;;4974455;28;20483;-72
2022/10/06 02:47:34;;;;;;;4.50;3.45;;;;;;;;;;4976161;28;20476;-71
2022/10/06 02:50:00;;;;;;;7.00;3.50;;;;;;;;;;4976135;28;20033;-70
2022/10/06 02:52:33;;;;;;;8.80;4.55;;;;;;;;;;4976244;28;20033;-71
2022/10/06 02:54:59;;;;;;;17.75;10.00;;;;;;;;;;4975896;28;20050;-70
2022/10/06 02:57:26;;;;;;;8.52;3.97;;;;;;;;;;4976049;28;20058;-72
2022/10/06 02:59:51;;;;;;;6.50;3.75;;;;;;;;;;4975583;28;20031;-71
2022/10/06 03:02:17;;;;;;;8.50;3.53;;;;;;;;;;4975789;28;20027;-70
2022/10/06 03:04:42;;;;;;;5.82;3.50;;;;;;;;;;4975880;28;20487;-71
2022/10/06 03:07:07;;;;;;;5.10;3.30;;;;;;;;;;4975946;28;20029;-70
2022/10/06 03:09:33;;;;;;;5.25;3.35;;;;;;;;;;4975251;28;20471;-69
2022/10/06 03:11:58;;;;;;;5.22;3.13;;;;;;;;;;4975261;28;20030;-69
2022/10/06 03:14:24;;;;;;;3.78;2.97;;;;;;;;;;4975289;28;20038;-71
2022/10/06 03:16:50;;;;;;;6.82;4.43;;;;;;;;;;4975044;28;20066;-71
2022/10/06 03:19:16;;;;;;;5.70;3.15;;;;;;;;;;4975367;28;20137;-70
2022/10/06 03:21:42;;;;;;;7.35;2.95;;;;;;;;;;4992947;28;20114;-71
2022/10/06 03:24:08;;;;;;;10.75;3.25;;;;;;;;;;4994853;28;20030;-72
2022/10/06 03:26:37;;;;;;;7.18;3.45;;;;;;;;;;4994868;28;20034;-73
2022/10/06 03:29:03;;;;;;;4.32;3.10;;;;;;;;;;4994374;28;20026;-71
2022/10/06 03:31:30;;;;;;;5.00;2.97;;;;;;;;;;4994935;28;20026;-71
2022/10/06 03:33:56;;;;;;;4.70;2.97;;;;;;;;;;4994938;28;20027;-71
2022/10/06 03:36:24;;;;;;;4.70;3.00;;;;;;;;;;4994786;28;20033;-71
2022/10/06 03:38:50;;;;;;;5.05;3.35;;;;;;;;;;4994586;28;20026;-68
2022/10/06 03:41:18;;;;;;;7.47;2.80;;;;;;;;;;4994086;28;20080;-69
2022/10/06 03:43:45;;;;;;;4.43;3.13;;;;;;;;;;4994086;28;20034;-71
2022/10/06 03:46:14;;;;;;;9.95;6.97;;;;;;;;;;4993818;28;20030;-72
2022/10/06 03:48:39;;;;;;;6.55;2.70;;;;;;;;;;4994342;28;20073;-73
2022/10/06 03:51:07;;;;;;;6.13;2.60;;;;;;;;;;4994390;28;20104;-73
2022/10/06 03:53:33;;;;;;;5.07;3.03;;;;;;;;;;4994557;28;20030;-71
2022/10/06 03:56:06;;;;;;;5.70;2.80;;;;;;;;;;4993042;28;20022;-73
2022/10/06 03:58:34;;;;;;;6.15;2.80;;;;;;;;;;4994331;28;20026;-71
2022/10/06 04:01:11;;;;;;;5.28;3.00;;;;;;;;;;4994375;28;20034;-71
2022/10/06 04:03:37;;;;;;;5.32;2.58;;;;;;;;;;4994453;28;20030;-72
2022/10/06 04:06:05;;;;;;;9.20;2.72;;;;;;;;;;4993907;28;20506;-72
2022/10/06 04:08:33;;;;;;;5.00;2.78;;;;;;;;;;4994285;28;20050;-71
2022/10/06 04:11:19;;;;;;;4.38;2.63;;;;;;;;;;4993582;28;20023;-73
2022/10/06 04:13:45;;;;;;;4.80;2.60;;;;;;;;;;4993312;28;20487;-73
2022/10/06 04:16:16;;;;;;;4.45;3.10;;;;;;;;;;4993683;28;20022;-73
2022/10/06 04:18:43;;;;;;;6.05;2.90;;;;;;;;;;4993561;28;20070;-71
2022/10/06 04:21:09;;;;;;;3.67;2.55;;;;;;;;;;4993407;28;20089;-72
2022/10/06 04:23:35;;;;;;;4.45;2.90;;;;;;;;;;4993970;28;20018;-71
2022/10/06 04:26:05;;;;;;;4.70;2.50;;;;;;;;;;4993798;28;20109;-74
2022/10/06 04:28:31;;;;;;;5.88;2.33;;;;;;;;;;4993908;28;20041;-69
2022/10/06 04:30:58;;;;;;;4.32;2.72;;;;;;;;;;4993853;28;20416;-73
2022/10/06 04:33:23;;;;;;;5.05;2.60;;;;;;;;;;4993745;28;20121;-73
2022/10/06 04:35:57;;;;;;;6.18;2.33;;;;;;;;;;4993482;28;20109;-73
2022/10/06 04:38:22;;;;;;;6.68;2.80;;;;;;;;;;4993038;28;20038;-72
2022/10/06 04:40:48;;;;;;;5.68;2.70;;;;;;;;;;4991952;28;20114;-72
2022/10/06 04:43:13;;;;;;;7.07;2.80;;;;;;;;;;4993182;28;20030;-72
2022/10/06 04:45:39;;;;;;;6.45;2.78;;;;;;;;;;4992889;28;20026;-72
2022/10/06 04:48:04;;;;;;;5.90;2.75;;;;;;;;;;4993495;28;20042;-72
2022/10/06 04:50:30;;;;;;;7.25;2.90;;;;;;;;;;4993363;28;20026;-72
2022/10/06 04:52:55;;;;;;;5.72;2.72;;;;;;;;;;4993382;28;20494;-73
2022/10/06 04:55:21;;;;;;;4.88;2.42;;;;;;;;;;4992280;28;20136;-72
2022/10/06 04:57:46;;;;;;;3.13;1.90;;;;;;;;;;4993422;28;20053;-72
2022/10/06 05:00:24;;;;;;;3.08;1.90;;;;;;;;;;4993301;28;20537;-72
2022/10/06 05:02:52;;;;;;;3.67;2.35;;;;;;;;;;4993195;28;20121;-70
2022/10/06 05:05:17;;;;;;;7.85;2.67;;;;;;;;;;4992899;28;20034;-69
2022/10/06 05:07:44;;;;;;;4.60;2.70;;;;;;;;;;4992431;28;20057;-73
2022/10/06 05:10:10;;;;;;;3.47;1.83;;;;;;;;;;4992496;28;20483;-72
2022/10/06 05:12:36;;;;;;;8.10;2.50;;;;;;;;;;4991293;28;20061;-72
2022/10/06 05:15:02;;;;;;;3.38;2.53;;;;;;;;;;4992301;28;20038;-71
2022/10/06 05:17:28;;;;;;;3.00;1.50;;;;;;;;;;4993040;28;20353;-70
2022/10/06 05:19:53;;;;;;;3.42;1.77;;;;;;;;;;4992670;28;20065;-70
2022/10/06 05:22:19;;;;;;;3.50;1.40;;;;;;;;;;4993249;28;20105;-72
2022/10/06 05:24:44;;;;;;;7.07;1.60;;;;;;;;;;4993042;28;20023;-73
2022/10/06 05:27:10;;;;;;;2.92;1.65;;;;;;;;;;4993079;28;20030;-71
2022/10/06 05:29:35;;;;;;;2.90;1.17;;;;;;;;;;4993016;28;20053;-71
2022/10/06 05:32:01;;;;;;;1.60;1.20;;;;;;;;;;4992994;28;20073;-68
2022/10/06 05:34:26;;;;;;;4.63;1.20;;;;;;;;;;4992901;28;20034;-69
2022/10/06 05:36:52;;;;;;;2.63;1.10;;;;;;;;;;4992960;28;20042;-72
2022/10/06 05:39:17;;;;;;;1.75;1.10;;;;;;;;;;4993134;28;20024;-69
2022/10/06 05:41:43;;;;;;;4.53;0.90;;;;;;;;;;4992735;28;20500;-68
2022/10/06 05:44:08;;;;;;;2.83;1.00;;;;;;;;;;4992078;28;20392;-71
2022/10/06 05:46:34;;;;;;;2.67;0.90;;;;;;;;;;4992221;28;20138;-69
2022/10/06 05:49:09;;;;;;;1.88;0.80;;;;;;;;;;4991954;28;20391;-70
2022/10/06 05:51:35;;;;;;;3.83;0.85;;;;;;;;;;4993979;28;20131;-70
2022/10/06 05:54:01;;;;;;;2.40;0.93;;;;;;;;;;4996719;28;20050;-70
2022/10/06 05:56:32;;;;;;;2.47;0.88;;;;;;;;;;4996464;28;20034;-69
2022/10/06 05:58:59;;;;;;;7.15;2.08;;;;;;;;;;4996345;28;20030;-70
2022/10/06 06:01:31;;;;;;;1.38;0.77;;;;;;;;;;4996370;28;20548;-68
2022/10/06 06:04:02;;;;;;;3.28;0.82;;;;;;;;;;4996310;28;20035;-68
2022/10/06 06:06:34;;;;;;;1.65;0.60;;;;;;;;;;4996127;28;20105;-70
2022/10/06 06:09:13;;;;;;;3.38;0.70;;;;;;;;;;4996715;28;20030;-68
2022/10/06 06:11:41;;;;;;;7.30;0.90;;;;;;;;;;4995966;28;20050;-69
2022/10/06 06:14:10;;;;;;;6.07;0.90;;;;;;;;;;4995681;28;20105;-68
2022/10/06 06:16:37;;;;;;;3.03;0.73;;;;;;;;;;4995370;28;20466;-69
2022/10/06 06:19:04;;;;;;;3.83;0.80;;;;;;;;;;4995543;28;20125;-70
2022/10/06 06:21:30;;;;;;;1.85;0.70;;;;;;;;;;4995554;28;20084;-68
2022/10/06 06:23:56;;;;;;;2.47;0.65;;;;;;;;;;4996018;28;20030;-68
2022/10/06 06:26:26;;;;;;;1.85;0.90;;;;;;;;;;4996009;28;20023;-69
2022/10/06 06:28:59;;;;;;;1.85;0.80;;;;;;;;;;4996219;28;20082;-68
2022/10/06 06:31:26;;;;;;;3.13;0.82;;;;;;;;;;4995798;28;20030;-71
2022/10/06 06:33:56;;;;;;;2.65;0.80;;;;;;;;;;4994725;28;20395;-69
2022/10/06 06:36:24;;;;;;;2.95;1.00;;;;;;;;;;4995320;28;20030;-70
2022/10/06 06:38:51;;;;;;;1.52;0.75;;;;;;;;;;4994974;28;20105;-70
2022/10/06 06:41:19;;;;;;;2.85;1.05;;;;;;;;;;4995144;28;20058;-69
2022/10/06 06:43:46;;;;;;;2.15;0.63;;;;;;;;;;4995089;28;20026;-70
2022/10/06 06:46:15;;;;;;;1.75;0.60;;;;;;;;;;4995306;28;20022;-69
2022/10/06 06:48:41;;;;;;;2.58;0.70;;;;;;;;;;4995857;28;20025;-69
2022/10/06 06:51:07;;;;;;;5.57;0.90;;;;;;;;;;4995646;28;20380;-68
2022/10/06 06:53:34;;;;;;;1.65;0.70;;;;;;;;;;4995489;28;20062;-72
2022/10/06 06:55:59;;;;;;;3.75;0.98;;;;;;;;;;4995175;28;20030;-71
2022/10/06 06:58:25;;;;;;;1.73;0.82;;;;;;;;;;4995001;28;20030;-69
2022/10/06 07:00:51;;;;;;;3.92;0.73;;;;;;;;;;4986432;28;20030;-69
2022/10/06 07:03:19;;;;;;;4.70;1.00;;;;;;;;;;4967083;28;20109;-68
2022/10/06 07:05:45;;;;;;;9.48;2.53;;;;;;;;;;4975184;28;20118;-69
2022/10/06 07:08:15;;;;;;;5.70;0.77;;;;;;;;;;4975460;28;20166;-68
2022/10/06 07:10:43;;;;;;;3.22;1.15;;;;;;;;;;4975550;28;20038;-71
2022/10/06 07:13:13;;;;;;;2.20;0.82;;;;;;;;;;4974192;28;20041;-72
2022/10/06 07:26:37;;;;;;;5.38;1.20;;;;;;;;;;4975190;28;20443;-69
2022/10/06 07:29:03;;;;;;;3.05;0.95;;;;;;;;;;4972557;28;20019;-69
2022/10/06 07:31:32;;;;;;;2.95;0.80;;;;;;;;;;4975202;28;20126;-70
2022/10/06 07:34:01;;;;;;;5.72;1.23;;;;;;;;;;4970032;28;20034;-70
2022/10/06 07:36:27;;;;;;;6.57;1.23;;;;;;;;;;4975361;28;20472;-69
2022/10/06 07:38:54;;;;;;;6.43;0.90;;;;;;;;;;4975446;28;20039;-68
2022/10/06 07:41:20;;;;;;;4.30;0.90;;;;;;;;;;4975280;28;20027;-69
2022/10/06 07:43:45;;;;;;;6.88;1.13;;;;;;;;;;4975059;28;20023;-69
2022/10/06 07:46:11;;;;;;;7.82;0.90;;;;;;;;;;4975001;28;20480;-68
2022/10/06 07:48:37;;;;;;;2.80;0.82;;;;;;;;;;4974943;28;20081;-69
2022/10/06 07:51:06;;;;;;;2.08;0.77;;;;;;;;;;4975138;28;20046;-68
2022/10/06 07:53:33;;;;;;;3.28;1.10;;;;;;;;;;4975081;28;20035;-68
2022/10/06 07:56:06;;;;;;;4.97;1.10;;;;;;;;;;4974779;28;20039;-69
2022/10/06 07:58:33;;;;;;;5.55;1.02;;;;;;;;;;4974898;28;20085;-69
2022/10/06 08:01:07;;;;;;;7.22;0.90;;;;;;;;;;4974943;28;20031;-68
2022/10/06 08:03:32;;;;;;;6.25;1.30;;;;;;;;;;4973576;28;20365;-69
2022/10/06 08:06:00;;;;;;;5.22;1.10;;;;;;;;;;4974306;28;20039;-68
2022/10/06 08:08:28;;;;;;;11.00;1.00;;;;;;;;;;4974732;28;20514;-67
2022/10/06 08:10:55;;;;;;;6.90;1.13;;;;;;;;;;4973629;28;20127;-68
2022/10/06 08:13:21;;;;;;;3.65;1.20;;;;;;;;;;4974665;28;20077;-68
2022/10/06 08:15:48;;;;;;;5.63;1.23;;;;;;;;;;4974642;28;20026;-67
2022/10/06 08:18:15;;;;;;;6.65;1.35;;;;;;;;;;4974735;28;20077;-68
2022/10/06 08:20:41;;;;;;;4.65;1.23;;;;;;;;;;4974722;28;20035;-67
2022/10/06 08:23:09;;;;;;;4.63;1.35;;;;;;;;;;4970605;28;20071;-65
2022/10/06 08:25:37;;;;;;;11.65;1.92;;;;;;;;;;4974359;28;20026;-66
2022/10/06 08:28:03;;;;;;;6.20;1.42;;;;;;;;;;4973797;28;20077;-69
2022/10/06 08:30:28;;;;;;;7.32;1.70;;;;;;;;;;4974461;28;20089;-65
2022/10/06 08:32:55;;;;;;;4.05;1.13;;;;;;;;;;4974380;28;20027;-67
2022/10/06 08:35:20;;;;;;;3.65;1.10;;;;;;;;;;4974275;28;20023;-69
2022/10/06 08:37:47;;;;;;;9.48;1.75;;;;;;;;;;4974274;28;20026;-67
2022/10/06 08:40:14;;;;;;;4.60;1.20;;;;;;;;;;4974262;28;20039;-67
2022/10/06 08:42:45;;;;;;;3.92;1.50;;;;;;;;;;4974122;28;20031;-69
2022/10/06 08:45:13;;;;;;;4.75;1.40;;;;;;;;;;4974206;28;20027;-67
2022/10/06 08:48:02;;;;;;;8.25;1.33;;;;;;;;;;4973950;28;20023;-68
2022/10/06 08:50:32;;;;;;;5.20;1.37;;;;;;;;;;4973772;28;20484;-68
2022/10/06 08:53:24;;;;;;;8.68;1.60;;;;;;;;;;4972767;28;20343;-68
2022/10/06 08:56:04;;;;;;;5.93;1.25;;;;;;;;;;4968519;28;20027;-68
2022/10/06 08:59:07;;;;;;;4.10;1.30;;;;;;;;;;4970490;28;20027;-69
2022/10/06 09:01:47;;;;;;;7.50;1.17;;;;;;;;;;4968107;28;20026;-68
2022/10/06 09:04:22;;;;;;;4.80;1.52;;;;;;;;;;4969606;28;20424;-68
2022/10/06 09:07:02;;;;;;;6.13;1.50;;;;;;;;;;4967996;28;20027;-69
2022/10/06 09:09:53;;;;;;;7.50;1.65;;;;;;;;;;4972052;28;20030;-69
2022/10/06 09:12:34;;;;;;;3.85;1.60;;;;;;;;;;4969091;28;20034;-68
2022/10/06 09:15:03;;;;;;;6.95;1.35;;;;;;;;;;4971820;28;20030;-68
2022/10/06 09:17:34;;;;;;;7.60;1.38;;;;;;;;;;4975781;28;20468;-69
2022/10/06 09:20:03;;;;;;;5.45;1.35;;;;;;;;;;4980374;28;20058;-69
2022/10/06 09:22:31;;;;;;;4.25;1.48;;;;;;;;;;4993069;28;20027;-69
2022/10/06 09:25:13;;;;;;;6.10;1.52;;;;;;;;;;4977636;28;20070;-71
2022/10/06 09:27:39;;;;;;;7.82;2.22;;;;;;;;;;4966131;28;20468;-68
2022/10/06 09:30:07;;;;;;;4.07;1.10;;;;;;;;;;4980091;28;20027;-68
2022/10/06 09:32:33;;;;;;;5.90;1.52;;;;;;;;;;4958354;28;20027;-70
2022/10/06 09:34:59;;;;;;;4.72;1.30;;;;;;;;;;4958205;28;20050;-68
2022/10/06 09:37:26;;;;;;;7.75;1.63;;;;;;;;;;4958037;28;20477;-69
2022/10/06 09:39:52;;;;;;;6.72;1.80;;;;;;;;;;4957884;28;20038;-68
2022/10/06 09:42:24;;;;;;;5.95;1.48;;;;;;;;;;4958092;28;20023;-71
2022/10/06 09:44:50;;;;;;;6.47;1.60;;;;;;;;;;4956840;28;20035;-70
2022/10/06 09:47:37;;;;;;;8.00;1.50;;;;;;;;;;4957769;28;20035;-68
2022/10/06 09:50:25;;;;;;;5.88;1.25;;;;;;;;;;4957948;28;20049;-70
2022/10/06 09:52:57;;;;;;;9.38;1.52;;;;;;;;;;4956991;29;20039;-69
2022/10/06 09:55:27;;;;;;;8.45;1.58;;;;;;;;;;4957639;28;20040;-68
2022/10/06 09:57:57;;;;;;;4.60;0.98;;;;;;;;;;4957890;28;20138;-71
2022/10/06 10:00:30;;;;;;;6.90;2.13;;;;;;;;;;4958079;28;20031;-70
2022/10/06 10:03:07;;;;;;;5.43;1.58;;;;;;;;;;4957904;28;20035;-70
2022/10/06 10:05:36;;;;;;;6.93;1.45;;;;;;;;;;4957665;28;20045;-68
2022/10/06 10:08:25;;;;;;;4.90;1.60;;;;;;;;;;4957336;28;20035;-68
2022/10/06 10:13:53;;;;;;;12.25;1.77;;;;;;;;;;4957481;29;20501;-71
2022/10/06 10:16:25;;;;;;;11.13;1.92;;;;;;;;;;4959297;28;20034;-72
2022/10/06 10:18:51;;;;;;;5.18;1.42;;;;;;;;;;4995978;28;20050;-71
2022/10/06 10:21:28;;;;;;;3.50;1.00;;;;;;;;;;4996022;28;20374;-71
2022/10/06 10:23:56;;;;;;;4.93;1.15;;;;;;;;;;4995938;28;20037;-71
2022/10/06 10:26:53;;;;;;;5.97;1.67;;;;;;;;;;4995838;28;20038;-71
2022/10/06 10:29:37;;;;;;;7.72;1.70;;;;;;;;;;4995907;28;20030;-70
2022/10/06 10:32:11;;;;;;;8.52;1.80;;;;;;;;;;4984371;28;20097;-68
2022/10/06 10:35:01;;;;;;;7.53;1.60;;;;;;;;;;4976518;28;20476;-71
2022/10/06 10:37:36;;;;;;;6.40;1.42;;;;;;;;;;4976211;28;20117;-71
2022/10/06 10:40:16;;;;;;;6.22;1.58;;;;;;;;;;4976433;28;20034;-71
2022/10/06 10:42:49;;;;;;;6.55;1.60;;;;;;;;;;4976368;28;20031;-71
2022/10/06 10:45:33;;;;;;;4.97;1.10;;;;;;;;;;4976252;28;20436;-71
2022/10/06 10:48:00;;;;;;;10.80;1.80;;;;;;;;;;4975942;28;20081;-71
2022/10/06 10:50:32;;;;;;;7.30;1.67;;;;;;;;;;4976092;28;20376;-71
2022/10/06 10:53:14;;;;;;;5.25;1.48;;;;;;;;;;4976057;28;20026;-68
2022/10/06 10:55:43;;;;;;;6.22;1.45;;;;;;;;;;4976041;28;20035;-70
2022/10/06 10:58:32;;;;;;;4.80;1.13;;;;;;;;;;4976136;28;20129;-70
2022/10/06 11:01:25;;;;;;;6.22;1.70;;;;;;;;;;4976089;28;20022;-71
2022/10/06 11:03:58;;;;;;;6.82;1.35;;;;;;;;;;4975948;28;20029;-69
2022/10/06 11:06:35;;;;;;;8.38;1.42;;;;;;;;;;4975650;28;20035;-70
2022/10/06 11:09:08;;;;;;;7.93;1.40;;;;;;;;;;4975940;28;20496;-66
2022/10/06 11:12:05;;;;;;;5.93;1.45;;;;;;;;;;4975820;28;20162;-72
2022/10/06 11:14:31;;;;;;;7.88;1.85;;;;;;;;;;4975734;28;20480;-67
2022/10/06 11:17:11;;;;;;;4.38;1.10;;;;;;;;;;4975763;28;20034;-70
2022/10/06 11:19:59;;;;;;;;;;;;;;;;;;4976435;28;20054;-69
2022/10/06 11:22:35;;;;;;;5.63;1.40;;;;;;;;;;4988998;28;19972;-70
2022/10/06 11:25:20;;;;;;;9.55;1.40;;;;;;;;;;4994778;28;20022;-71
2022/10/06 11:28:13;;;;;;;8.73;1.30;;;;;;;;;;4994489;28;20027;-71
2022/10/06 11:31:09;;;;;;;6.00;1.40;;;;;;;;;;4994784;28;20109;-70
2022/10/06 11:33:55;;;;;;;7.53;1.10;;;;;;;;;;4994871;28;20030;-70
2022/10/06 11:36:27;;;;;;;5.50;1.20;;;;;;;;;;4994268;28;20026;-71
2022/10/06 11:39:20;;;;;;;8.75;1.10;;;;;;;;;;4994401;28;20434;-70
2022/10/06 11:42:10;;;;;;;3.63;1.02;;;;;;;;;;4994540;28;20026;-71
2022/10/06 11:45:02;;;;;;;10.52;1.85;;;;;;;;;;4994522;28;20030;-70
2022/10/06 11:47:37;;;;;;;8.07;1.42;;;;;;;;;;4988988;28;20049;-70
2022/10/06 11:50:30;;;;;;;8.50;1.45;;;;;;;;;;4993768;28;20038;-69
2022/10/06 11:52:56;;;;;;;5.75;1.25;;;;;;;;;;4994240;28;20026;-68
2022/10/06 11:55:25;;;;;;;4.97;1.30;;;;;;;;;;4994185;28;20048;-70
2022/10/06 11:58:08;;;;;;;8.38;1.55;;;;;;;;;;4994200;28;20023;-71
2022/10/06 12:00:34;;;;;;;6.95;1.48;;;;;;;;;;4994282;28;20026;-70
2022/10/06 12:03:22;;;;;;;7.13;1.35;;;;;;;;;;4994037;28;20041;-70
2022/10/06 12:05:48;;;;;;;8.73;1.30;;;;;;;;;;4987456;28;20064;-73
2022/10/06 12:08:15;;;;;;;6.40;1.00;;;;;;;;;;4994015;28;20042;-70
2022/10/06 12:10:49;;;;;;;4.78;1.00;;;;;;;;;;4993951;28;20480;-68
2022/10/06 12:13:39;;;;;;;7.10;1.30;;;;;;;;;;4994201;28;20024;-70
2022/10/06 12:16:43;;;;;;;6.07;1.23;;;;;;;;;;4993809;28;20019;-69
2022/10/06 12:19:18;;;;;;;9.13;1.63;;;;;;;;;;4952440;29;20513;-69
2022/10/06 12:22:11;;;;;;;8.10;1.58;;;;;;;;;;4968792;28;20047;-66
2022/10/06 12:24:49;;;;;;;8.45;1.13;;;;;;;;;;4935150;29;20036;-72
2022/10/06 12:27:27;;;;;;;8.98;1.25;;;;;;;;;;4946310;29;20402;-71
2022/10/06 12:30:15;;;;;;;7.18;0.95;;;;;;;;;;4936618;29;20031;-68
2022/10/06 12:32:48;;;;;;;5.53;1.25;;;;;;;;;;4944172;29;20159;-73
2022/10/06 12:35:29;;;;;;;9.27;1.40;;;;;;;;;;4945955;29;20085;-71
2022/10/06 12:37:57;;;;;;;7.10;1.40;;;;;;;;;;4936090;29;20035;-71
2022/10/06 12:40:39;;;;;;;5.95;1.08;;;;;;;;;;4952330;29;20401;-71
2022/10/06 12:43:13;;;;;;;6.40;1.48;;;;;;;;;;4940711;29;20036;-71
2022/10/06 12:45:43;;;;;;;7.32;1.83;;;;;;;;;;4933159;29;20038;-72
2022/10/06 12:48:24;;;;;;;6.43;1.08;;;;;;;;;;4931663;29;20039;-72
2022/10/06 12:50:58;;;;;;;7.13;1.38;;;;;;;;;;4931332;29;20032;-70
2022/10/06 12:53:31;;;;;;;8.52;1.67;;;;;;;;;;4944915;29;20054;-70
2022/10/06 12:56:01;;;;;;;7.60;1.20;;;;;;;;;;4953404;28;20035;-73
2022/10/06 12:58:31;;;;;;;5.07;1.13;;;;;;;;;;4953798;28;20023;-72
2022/10/06 13:01:11;;;;;;;5.05;1.02;;;;;;;;;;4952878;28;20027;-73
2022/10/06 13:03:37;;;;;;;6.85;1.10;;;;;;;;;;4954052;28;20031;-72
2022/10/06 13:06:06;;;;;;;7.28;1.13;;;;;;;;;;4969839;28;20026;-73
2022/10/06 13:08:34;;;;;;;4.72;1.20;;;;;;;;;;4985643;28;20112;-72
2022/10/06 13:11:10;;;;;;;8.35;1.45;;;;;;;;;;4976789;28;20034;-71
2022/10/06 13:13:44;;;;;;;7.93;1.23;;;;;;;;;;4987728;28;20033;-72
2022/10/06 13:16:10;;;;;;;7.00;1.55;;;;;;;;;;4982826;28;20044;-72
2022/10/06 13:18:36;;;;;;;5.85;1.45;;;;;;;;;;4979131;28;20051;-72
2022/10/06 13:21:02;;;;;;;7.80;1.58;;;;;;;;;;4978827;28;20041;-69
2022/10/06 13:23:31;;;;;;;7.82;2.22;;;;;;;;;;4969385;28;20019;-71
2022/10/06 13:25:58;;;;;;;5.15;1.35;;;;;;;;;;4963898;28;20117;-71
2022/10/06 13:28:35;;;;;;;3.75;0.90;;;;;;;;;;4966602;28;20034;-71
2022/10/06 13:31:08;;;;;;;8.00;1.60;;;;;;;;;;4985292;28;20097;-68
2022/10/06 13:33:38;;;;;;;7.78;1.80;;;;;;;;;;4974312;28;20030;-71
2022/10/06 13:36:06;;;;;;;7.18;1.70;;;;;;;;;;4979613;28;20035;-68
2022/10/06 13:38:33;;;;;;;7.18;2.00;;;;;;;;;;4981826;28;20385;-70
2022/10/06 13:41:02;;;;;;;4.65;1.10;;;;;;;;;;4972551;28;20491;-69
2022/10/06 13:43:29;;;;;;;6.30;1.00;;;;;;;;;;4984059;28;20064;-71
2022/10/06 13:45:56;;;;;;;6.30;1.75;;;;;;;;;;4976528;28;20018;-69
2022/10/06 13:48:24;;;;;;;6.85;1.60;;;;;;;;;;4977449;28;20122;-69
2022/10/06 13:50:51;;;;;;;7.55;1.83;;;;;;;;;;4984088;28;20041;-70
2022/10/06 13:53:31;;;;;;;6.40;1.40;;;;;;;;;;4972311;28;20031;-70
2022/10/06 13:55:57;;;;;;;9.30;1.52;;;;;;;;;;4980372;28;20433;-70
2022/10/06 13:58:28;;;;;;;5.78;0.98;;;;;;;;;;4969176;28;20039;-70
2022/10/06 14:00:59;;;;;;;6.00;1.20;;;;;;;;;;4968735;28;20034;-70
2022/10/06 14:03:34;;;;;;;6.43;1.20;;;;;;;;;;4956634;28;20022;-71
2022/10/06 14:06:17;;;;;;;8.82;1.50;;;;;;;;;;4980000;28;20539;-69
2022/10/06 14:08:52;;;;;;;7.30;1.42;;;;;;;;;;4983015;28;20053;-70
2022/10/06 14:11:27;;;;;;;5.97;1.17;;;;;;;;;;4972408;28;20223;-71
2022/10/06 14:13:56;;;;;;;8.93;1.38;;;;;;;;;;4984219;28;20037;-67
2022/10/06 14:16:26;;;;;;;5.67;1.50;;;;;;;;;;4982348;28;20041;-68
2022/10/06 14:18:57;;;;;;;;;;;;;;;;;;4976886;28;20690;-69
2022/10/06 14:21:34;;;;;;;4.97;1.38;;;;;;;;;;4991562;28;19965;-69
2022/10/06 14:24:26;;;;;;;8.23;1.45;;;;;;;;;;4983288;28;20027;-71
2022/10/06 14:26:55;;;;;;;6.70;1.38;;;;;;;;;;4986941;28;20101;-71
2022/10/06 14:29:21;;;;;;;18.42;6.45;;;;;;;;;;4975348;28;20029;-70
2022/10/06 14:31:48;;;;;;;14.07;4.88;;;;;;;;;;4985023;28;20019;-70
2022/10/06 14:34:16;;;;;;;8.00;2.70;;;;;;;;;;4982310;28;20557;-70
2022/10/06 14:36:45;;;;;;;5.10;1.63;;;;;;;;;;4977456;28;20468;-70
2022/10/06 14:39:12;;;;;;;10.02;1.60;;;;;;;;;;4972545;28;20027;-71
2022/10/06 14:41:38;;;;;;;4.15;1.02;;;;;;;;;;4972508;28;20468;-71
2022/10/06 14:44:07;;;;;;;5.90;1.65;;;;;;;;;;4972300;28;20046;-71
2022/10/06 14:46:33;;;;;;;6.43;1.33;;;;;;;;;;4972209;28;20027;-69
2022/10/06 14:48:59;;;;;;;6.95;1.23;;;;;;;;;;4972041;28;20439;-69
2022/10/06 14:51:26;;;;;;;5.50;0.93;;;;;;;;;;4971770;28;20027;-71
2022/10/06 14:53:54;;;;;;;6.70;1.10;;;;;;;;;;4971839;28;20026;-69
2022/10/06 14:56:21;;;;;;;4.20;1.60;;;;;;;;;;4972049;28;20085;-71
2022/10/06 14:58:47;;;;;;;18.33;6.07;;;;;;;;;;4971794;28;20054;-71
2022/10/06 15:01:15;;;;;;;12.70;4.18;;;;;;;;;;4972299;28;20547;-72
2022/10/06 15:03:41;;;;;;;8.27;2.95;;;;;;;;;;4971944;28;20042;-73
2022/10/06 15:08:55;;;;;;;6.20;1.27;;;;;;;;;;4972201;28;20050;-73
2022/10/06 15:11:22;;;;;;;4.07;1.10;;;;;;;;;;4971740;28;20058;-72
2022/10/06 15:13:48;;;;;;;4.50;1.20;;;;;;;;;;4971356;28;20041;-71
2022/10/06 15:16:15;;;;;;;11.93;1.30;;;;;;;;;;4971905;28;20019;-71
2022/10/06 15:18:41;;;;;;;3.50;1.10;;;;;;;;;;4971282;28;20047;-72